Terminal Aerodrome Forecast
Issued by NWS

Home | Current Version | Previous Version | Text Only | Print | Product List | Glossary Off
Versions: 1 2 3 4 5 6 7 8 9 10 11 12 13 14 15 16 17 18 19 20 21 22 23 24 25 26 27 28 29 30 31 32

000
FTUS43 KLOT 271141
TAFMDW
TAF
KMDW 271141Z 2712/2812 01012KT 3SM -SHSN OVC020
      TEMPO 2712/2713 1 1/2SM -SHSN OVC012
     FM271300 01012KT P6SM -SHSN BKN025 OVC035
     FM271500 01014G20KT P6SM BKN040
     FM272000 04012KT P6SM SCT040
     FM280200 05008KT P6SM SCT035
     FM281100 05004KT P6SM FEW035=

USA.gov is the U.S. government's official web portal to all federal, state and local government web resources and services.